sensor_id;sensor_type;location;lat;lon;timestamp;temperature;humidity
13694;DHT22;6919;52.344;14.518;2022-07-29T00:02:14;15.70;99.90
13694;DHT22;6919;52.344;14.518;2022-07-29T00:04:43;15.60;99.90
13694;DHT22;6919;52.344;14.518;2022-07-29T00:07:12;15.60;99.90
13694;DHT22;6919;52.344;14.518;2022-07-29T00:09:40;15.60;99.90
13694;DHT22;6919;52.344;14.518;2022-07-29T00:12:18;15.50;99.90
13694;DHT22;6919;52.344;14.518;2022-07-29T00:14:52;15.50;99.90
13694;DHT22;6919;52.344;14.518;2022-07-29T00:17:22;15.40;99.90
13694;DHT22;6919;52.344;14.518;2022-07-29T00:19:50;15.40;99.90
13694;DHT22;6919;52.344;14.518;2022-07-29T00:22:20;15.40;99.90
13694;DHT22;6919;52.344;14.518;2022-07-29T00:24:49;15.40;99.90
13694;DHT22;6919;52.344;14.518;2022-07-29T00:27:17;13.30;99.90
13694;DHT22;6919;52.344;14.518;2022-07-29T00:29:45;15.20;99.90
13694;DHT22;6919;52.344;14.518;2022-07-29T00:32:13;15.20;99.90
13694;DHT22;6919;52.344;14.518;2022-07-29T00:34:41;15.10;99.90
13694;DHT22;6919;52.344;14.518;2022-07-29T00:37:29;15.10;99.90
13694;DHT22;6919;52.344;14.518;2022-07-29T00:40:00;15.10;99.90
13694;DHT22;6919;52.344;14.518;2022-07-29T00:42:28;15.00;99.90
13694;DHT22;6919;52.344;14.518;2022-07-29T00:44:56;15.00;99.90
13694;DHT22;6919;52.344;14.518;2022-07-29T00:47:24;15.00;99.90
13694;DHT22;6919;52.344;14.518;2022-07-29T00:49:52;14.90;99.90
13694;DHT22;6919;52.344;14.518;2022-07-29T00:52:21;15.00;99.90
13694;DHT22;6919;52.344;14.518;2022-07-29T00:54:50;14.90;99.90
13694;DHT22;6919;52.344;14.518;2022-07-29T00:57:20;14.80;99.90
13694;DHT22;6919;52.344;14.518;2022-07-29T00:59:48;14.90;99.90
13694;DHT22;6919;52.344;14.518;2022-07-29T01:02:16;14.90;99.90
13694;DHT22;6919;52.344;14.518;2022-07-29T01:04:44;14.90;99.90
13694;DHT22;6919;52.344;14.518;2022-07-29T01:07:13;14.80;99.90
13694;DHT22;6919;52.344;14.518;2022-07-29T01:09:42;14.80;99.90
13694;DHT22;6919;52.344;14.518;2022-07-29T01:12:16;14.80;99.90
13694;DHT22;6919;52.344;14.518;2022-07-29T01:14:49;15.00;99.90
13694;DHT22;6919;52.344;14.518;2022-07-29T01:17:24;15.10;99.90
13694;DHT22;6919;52.344;14.518;2022-07-29T01:19:58;15.40;99.90
13694;DHT22;6919;52.344;14.518;2022-07-29T01:22:42;15.30;99.90
13694;DHT22;6919;52.344;14.518;2022-07-29T01:26:00;15.30;99.90
13694;DHT22;6919;52.344;14.518;2022-07-29T01:28:47;15.30;99.90
13694;DHT22;6919;52.344;14.518;2022-07-29T01:31:35;15.20;99.90
13694;DHT22;6919;52.344;14.518;2022-07-29T01:34:31;15.20;99.90
13694;DHT22;6919;52.344;14.518;2022-07-29T01:37:11;15.10;99.90
13694;DHT22;6919;52.344;14.518;2022-07-29T01:39:47;15.10;99.90
13694;DHT22;6919;52.344;14.518;2022-07-29T01:42:25;15.10;99.90
13694;DHT22;6919;52.344;14.518;2022-07-29T01:45:02;15.20;99.90
13694;DHT22;6919;52.344;14.518;2022-07-29T01:47:40;15.20;99.90
13694;DHT22;6919;52.344;14.518;2022-07-29T01:50:15;15.20;99.90
13694;DHT22;6919;52.344;14.518;2022-07-29T01:52:49;15.30;99.90
13694;DHT22;6919;52.344;14.518;2022-07-29T01:55:27;15.20;99.90
13694;DHT22;6919;52.344;14.518;2022-07-29T01:57:59;15.20;99.90
13694;DHT22;6919;52.344;14.518;2022-07-29T02:00:33;15.10;99.90
13694;DHT22;6919;52.344;14.518;2022-07-29T02:03:07;14.90;99.90
13694;DHT22;6919;52.344;14.518;2022-07-29T02:05:41;14.90;99.90
13694;DHT22;6919;52.344;14.518;2022-07-29T02:08:13;14.80;99.90
13694;DHT22;6919;52.344;14.518;2022-07-29T02:10:44;14.70;99.90
13694;DHT22;6919;52.344;14.518;2022-07-29T02:13:16;14.60;99.90
13694;DHT22;6919;52.344;14.518;2022-07-29T02:15:48;14.50;99.90
13694;DHT22;6919;52.344;14.518;2022-07-29T02:18:23;14.60;99.90
13694;DHT22;6919;52.344;14.518;2022-07-29T02:20:55;14.60;99.90
13694;DHT22;6919;52.344;14.518;2022-07-29T02:23:26;14.50;99.90
13694;DHT22;6919;52.344;14.518;2022-07-29T02:25:56;14.60;99.90
13694;DHT22;6919;52.344;14.518;2022-07-29T02:28:27;14.60;99.90
13694;DHT22;6919;52.344;14.518;2022-07-29T02:31:01;14.60;99.90
13694;DHT22;6919;52.344;14.518;2022-07-29T02:33:31;14.50;99.90
13694;DHT22;6919;52.344;14.518;2022-07-29T02:36:02;14.40;99.90
13694;DHT22;6919;52.344;14.518;2022-07-29T02:38:32;14.40;99.90
13694;DHT22;6919;52.344;14.518;2022-07-29T02:41:20;14.30;99.90
13694;DHT22;6919;52.344;14.518;2022-07-29T02:43:55;14.50;99.90
13694;DHT22;6919;52.344;14.518;2022-07-29T02:46:31;14.30;99.90
13694;DHT22;6919;52.344;14.518;2022-07-29T02:49:06;14.20;99.90
13694;DHT22;6919;52.344;14.518;2022-07-29T02:51:43;14.20;99.90
13694;DHT22;6919;52.344;14.518;2022-07-29T02:54:24;14.20;99.90
13694;DHT22;6919;52.344;14.518;2022-07-29T02:57:01;14.20;99.90
13694;DHT22;6919;52.344;14.518;2022-07-29T02:59:36;14.10;99.90
13694;DHT22;6919;52.344;14.518;2022-07-29T03:02:12;14.20;99.90
13694;DHT22;6919;52.344;14.518;2022-07-29T03:04:43;14.20;99.90
13694;DHT22;6919;52.344;14.518;2022-07-29T03:07:13;14.20;99.90
13694;DHT22;6919;52.344;14.518;2022-07-29T03:09:43;14.10;99.90
13694;DHT22;6919;52.344;14.518;2022-07-29T03:12:14;14.20;99.90
13694;DHT22;6919;52.344;14.518;2022-07-29T03:14:43;14.10;99.90
13694;DHT22;6919;52.344;14.518;2022-07-29T03:17:14;14.20;99.90
13694;DHT22;6919;52.344;14.518;2022-07-29T03:19:44;14.10;99.90
13694;DHT22;6919;52.344;14.518;2022-07-29T03:22:12;14.10;99.90
13694;DHT22;6919;52.344;14.518;2022-07-29T03:24:44;14.20;99.90
13694;DHT22;6919;52.344;14.518;2022-07-29T03:27:13;14.10;99.90
13694;DHT22;6919;52.344;14.518;2022-07-29T03:29:41;14.10;99.90
13694;DHT22;6919;52.344;14.518;2022-07-29T03:32:17;14.10;99.90
13694;DHT22;6919;52.344;14.518;2022-07-29T03:34:50;14.10;99.90
13694;DHT22;6919;52.344;14.518;2022-07-29T03:37:19;14.10;99.90
13694;DHT22;6919;52.344;14.518;2022-07-29T03:39:47;14.10;99.90
13694;DHT22;6919;52.344;14.518;2022-07-29T03:42:19;14.00;99.90
13694;DHT22;6919;52.344;14.518;2022-07-29T03:44:52;14.10;99.90
13694;DHT22;6919;52.344;14.518;2022-07-29T03:47:26;14.10;99.90
13694;DHT22;6919;52.344;14.518;2022-07-29T03:50:17;14.20;99.90
13694;DHT22;6919;52.344;14.518;2022-07-29T03:52:48;14.30;99.90
13694;DHT22;6919;52.344;14.518;2022-07-29T03:55:17;14.50;99.90
13694;DHT22;6919;52.344;14.518;2022-07-29T03:57:46;14.50;99.90
13694;DHT22;6919;52.344;14.518;2022-07-29T04:00:16;14.70;99.90
13694;DHT22;6919;52.344;14.518;2022-07-29T04:02:46;14.80;99.90
13694;DHT22;6919;52.344;14.518;2022-07-29T04:05:16;14.90;99.90
13694;DHT22;6919;52.344;14.518;2022-07-29T04:07:46;15.00;99.90
13694;DHT22;6919;52.344;14.518;2022-07-29T04:10:17;15.10;99.90
13694;DHT22;6919;52.344;14.518;2022-07-29T04:12:56;15.30;99.90
13694;DHT22;6919;52.344;14.518;2022-07-29T04:15:25;15.40;99.90
13694;DHT22;6919;52.344;14.518;2022-07-29T04:17:58;15.60;99.90
13694;DHT22;6919;52.344;14.518;2022-07-29T04:20:27;15.90;99.90
13694;DHT22;6919;52.344;14.518;2022-07-29T04:22:55;16.00;99.90
13694;DHT22;6919;52.344;14.518;2022-07-29T04:25:24;16.20;99.90
13694;DHT22;6919;52.344;14.518;2022-07-29T04:27:52;16.30;99.90
13694;DHT22;6919;52.344;14.518;2022-07-29T04:30:30;16.40;99.90
13694;DHT22;6919;52.344;14.518;2022-07-29T04:33:02;16.50;99.90
13694;DHT22;6919;52.344;14.518;2022-07-29T04:35:35;16.70;99.90
13694;DHT22;6919;52.344;14.518;2022-07-29T04:38:15;16.80;99.90
13694;DHT22;6919;52.344;14.518;2022-07-29T04:40:44;16.90;99.90
13694;DHT22;6919;52.344;14.518;2022-07-29T04:43:12;17.00;99.90
13694;DHT22;6919;52.344;14.518;2022-07-29T04:45:41;16.90;99.90
13694;DHT22;6919;52.344;14.518;2022-07-29T04:48:11;16.90;99.90
13694;DHT22;6919;52.344;14.518;2022-07-29T04:50:39;17.00;99.90
13694;DHT22;6919;52.344;14.518;2022-07-29T04:53:08;16.80;99.90
13694;DHT22;6919;52.344;14.518;2022-07-29T04:55:36;16.80;99.90
13694;DHT22;6919;52.344;14.518;2022-07-29T04:58:05;16.70;99.90
13694;DHT22;6919;52.344;14.518;2022-07-29T05:00:34;16.60;99.90
13694;DHT22;6919;52.344;14.518;2022-07-29T05:03:02;16.50;99.90
13694;DHT22;6919;52.344;14.518;2022-07-29T05:05:32;16.40;99.90
13694;DHT22;6919;52.344;14.518;2022-07-29T05:08:01;16.30;99.90
13694;DHT22;6919;52.344;14.518;2022-07-29T05:10:29;16.40;99.90
13694;DHT22;6919;52.344;14.518;2022-07-29T05:12:57;16.50;99.90
13694;DHT22;6919;52.344;14.518;2022-07-29T05:15:26;16.40;99.90
13694;DHT22;6919;52.344;14.518;2022-07-29T05:17:54;16.60;99.90
13694;DHT22;6919;52.344;14.518;2022-07-29T05:20:22;16.50;99.90
13694;DHT22;6919;52.344;14.518;2022-07-29T05:22:56;16.40;99.90
13694;DHT22;6919;52.344;14.518;2022-07-29T05:25:25;16.50;99.90
13694;DHT22;6919;52.344;14.518;2022-07-29T05:28:10;16.40;99.90
13694;DHT22;6919;52.344;14.518;2022-07-29T05:30:38;16.40;99.90
13694;DHT22;6919;52.344;14.518;2022-07-29T05:33:06;16.50;99.90
13694;DHT22;6919;52.344;14.518;2022-07-29T05:35:55;16.40;99.90
13694;DHT22;6919;52.344;14.518;2022-07-29T05:38:28;16.50;99.90
13694;DHT22;6919;52.344;14.518;2022-07-29T05:40:57;16.60;99.90
13694;DHT22;6919;52.344;14.518;2022-07-29T05:43:26;16.70;99.90
13694;DHT22;6919;52.344;14.518;2022-07-29T05:45:55;16.80;99.90
13694;DHT22;6919;52.344;14.518;2022-07-29T05:48:25;17.00;99.90
13694;DHT22;6919;52.344;14.518;2022-07-29T05:50:53;17.00;99.90
13694;DHT22;6919;52.344;14.518;2022-07-29T05:53:22;17.00;99.90
13694;DHT22;6919;52.344;14.518;2022-07-29T05:55:52;17.10;99.90
13694;DHT22;6919;52.344;14.518;2022-07-29T05:58:20;17.10;99.90
13694;DHT22;6919;52.344;14.518;2022-07-29T06:00:48;17.10;99.90
13694;DHT22;6919;52.344;14.518;2022-07-29T06:03:17;17.20;99.90
13694;DHT22;6919;52.344;14.518;2022-07-29T06:05:45;17.30;99.90
13694;DHT22;6919;52.344;14.518;2022-07-29T06:08:13;17.40;99.90
13694;DHT22;6919;52.344;14.518;2022-07-29T06:10:41;17.40;99.90
13694;DHT22;6919;52.344;14.518;2022-07-29T06:13:11;17.60;99.90
13694;DHT22;6919;52.344;14.518;2022-07-29T06:15:39;17.80;99.90
13694;DHT22;6919;52.344;14.518;2022-07-29T06:18:08;17.80;99.90
13694;DHT22;6919;52.344;14.518;2022-07-29T06:20:37;17.80;99.90
13694;DHT22;6919;52.344;14.518;2022-07-29T06:23:05;17.90;99.90
13694;DHT22;6919;52.344;14.518;2022-07-29T06:25:34;17.90;99.90
13694;DHT22;6919;52.344;14.518;2022-07-29T06:28:03;17.90;99.90
13694;DHT22;6919;52.344;14.518;2022-07-29T06:30:33;17.90;99.90
13694;DHT22;6919;52.344;14.518;2022-07-29T06:33:02;17.90;99.90
13694;DHT22;6919;52.344;14.518;2022-07-29T06:35:33;17.90;99.90
13694;DHT22;6919;52.344;14.518;2022-07-29T06:38:08;17.90;99.90
13694;DHT22;6919;52.344;14.518;2022-07-29T06:40:58;18.00;99.90
13694;DHT22;6919;52.344;14.518;2022-07-29T06:43:31;18.10;99.90
13694;DHT22;6919;52.344;14.518;2022-07-29T06:46:20;18.20;99.90
13694;DHT22;6919;52.344;14.518;2022-07-29T06:48:49;18.40;99.90
13694;DHT22;6919;52.344;14.518;2022-07-29T06:51:19;18.30;99.90
13694;DHT22;6919;52.344;14.518;2022-07-29T06:53:50;18.30;99.90
13694;DHT22;6919;52.344;14.518;2022-07-29T06:56:25;18.30;99.90
13694;DHT22;6919;52.344;14.518;2022-07-29T06:58:54;18.30;99.90
13694;DHT22;6919;52.344;14.518;2022-07-29T07:01:23;18.40;99.90
13694;DHT22;6919;52.344;14.518;2022-07-29T07:03:51;18.40;99.90
13694;DHT22;6919;52.344;14.518;2022-07-29T07:06:20;18.40;99.90
13694;DHT22;6919;52.344;14.518;2022-07-29T07:08:48;18.40;99.90
13694;DHT22;6919;52.344;14.518;2022-07-29T07:11:16;18.50;99.90
13694;DHT22;6919;52.344;14.518;2022-07-29T07:13:44;18.50;99.90
13694;DHT22;6919;52.344;14.518;2022-07-29T07:16:13;18.60;99.90
13694;DHT22;6919;52.344;14.518;2022-07-29T07:18:43;18.60;99.90
13694;DHT22;6919;52.344;14.518;2022-07-29T07:21:12;18.50;99.90
13694;DHT22;6919;52.344;14.518;2022-07-29T07:23:45;18.50;99.90
13694;DHT22;6919;52.344;14.518;2022-07-29T07:26:13;18.50;99.90
13694;DHT22;6919;52.344;14.518;2022-07-29T07:28:42;18.60;99.90
13694;DHT22;6919;52.344;14.518;2022-07-29T07:31:10;18.70;99.90
13694;DHT22;6919;52.344;14.518;2022-07-29T07:33:39;18.80;99.90
13694;DHT22;6919;52.344;14.518;2022-07-29T07:36:08;18.90;99.90
13694;DHT22;6919;52.344;14.518;2022-07-29T07:38:37;19.00;99.90
13694;DHT22;6919;52.344;14.518;2022-07-29T07:41:05;19.40;99.90
13694;DHT22;6919;52.344;14.518;2022-07-29T07:43:33;19.50;99.90
13694;DHT22;6919;52.344;14.518;2022-07-29T07:46:01;19.70;99.90
13694;DHT22;6919;52.344;14.518;2022-07-29T07:48:30;19.80;99.90
13694;DHT22;6919;52.344;14.518;2022-07-29T07:50:58;20.00;99.90
13694;DHT22;6919;52.344;14.518;2022-07-29T07:53:28;20.20;99.90
13694;DHT22;6919;52.344;14.518;2022-07-29T07:55:58;20.20;99.90
13694;DHT22;6919;52.344;14.518;2022-07-29T07:58:37;20.20;99.90
13694;DHT22;6919;52.344;14.518;2022-07-29T08:01:05;20.30;99.90
13694;DHT22;6919;52.344;14.518;2022-07-29T08:03:34;20.40;99.90
13694;DHT22;6919;52.344;14.518;2022-07-29T08:06:02;20.60;99.90
13694;DHT22;6919;52.344;14.518;2022-07-29T08:08:32;20.60;99.90
13694;DHT22;6919;52.344;14.518;2022-07-29T08:11:01;20.50;99.90
13694;DHT22;6919;52.344;14.518;2022-07-29T08:13:35;20.80;99.90
13694;DHT22;6919;52.344;14.518;2022-07-29T08:16:06;21.00;99.90
13694;DHT22;6919;52.344;14.518;2022-07-29T08:18:43;21.00;99.90
13694;DHT22;6919;52.344;14.518;2022-07-29T08:21:12;21.10;99.90
13694;DHT22;6919;52.344;14.518;2022-07-29T08:23:43;21.30;99.90
13694;DHT22;6919;52.344;14.518;2022-07-29T08:26:24;21.60;99.90
13694;DHT22;6919;52.344;14.518;2022-07-29T08:28:53;21.90;99.90
13694;DHT22;6919;52.344;14.518;2022-07-29T08:31:21;22.40;99.90
13694;DHT22;6919;52.344;14.518;2022-07-29T08:33:49;22.70;99.90
13694;DHT22;6919;52.344;14.518;2022-07-29T08:36:17;23.10;99.90
13694;DHT22;6919;52.344;14.518;2022-07-29T08:38:48;23.40;99.90
13694;DHT22;6919;52.344;14.518;2022-07-29T08:41:18;23.60;99.90
13694;DHT22;6919;52.344;14.518;2022-07-29T08:43:46;23.20;99.90
13694;DHT22;6919;52.344;14.518;2022-07-29T08:46:15;23.20;99.90
13694;DHT22;6919;52.344;14.518;2022-07-29T08:48:44;23.20;99.90
13694;DHT22;6919;52.344;14.518;2022-07-29T08:51:13;23.20;99.90
13694;DHT22;6919;52.344;14.518;2022-07-29T08:53:44;23.30;99.90
13694;DHT22;6919;52.344;14.518;2022-07-29T08:56:18;23.70;99.90
13694;DHT22;6919;52.344;14.518;2022-07-29T08:58:48;24.00;99.90
13694;DHT22;6919;52.344;14.518;2022-07-29T09:01:22;24.00;99.90
13694;DHT22;6919;52.344;14.518;2022-07-29T09:04:11;24.30;99.90
13694;DHT22;6919;52.344;14.518;2022-07-29T09:06:44;24.70;99.90
13694;DHT22;6919;52.344;14.518;2022-07-29T09:09:15;24.90;99.90
13694;DHT22;6919;52.344;14.518;2022-07-29T09:11:44;25.20;99.90
13694;DHT22;6919;52.344;14.518;2022-07-29T09:14:14;25.60;99.90
13694;DHT22;6919;52.344;14.518;2022-07-29T09:16:50;25.80;98.70
13694;DHT22;6919;52.344;14.518;2022-07-29T09:19:26;25.90;96.80
13694;DHT22;6919;52.344;14.518;2022-07-29T09:21:57;26.10;94.90
13694;DHT22;6919;52.344;14.518;2022-07-29T09:24:43;26.10;94.90
13694;DHT22;6919;52.344;14.518;2022-07-29T09:27:21;26.30;94.10
13694;DHT22;6919;52.344;14.518;2022-07-29T09:29:57;26.10;92.20
13694;DHT22;6919;52.344;14.518;2022-07-29T09:32:26;26.50;92.10
13694;DHT22;6919;52.344;14.518;2022-07-29T09:35:15;26.80;91.60
13694;DHT22;6919;52.344;14.518;2022-07-29T09:37:46;27.10;90.50
13694;DHT22;6919;52.344;14.518;2022-07-29T09:40:16;27.00;84.00
13694;DHT22;6919;52.344;14.518;2022-07-29T09:42:48;26.90;82.30
13694;DHT22;6919;52.344;14.518;2022-07-29T09:45:27;26.80;82.30
13694;DHT22;6919;52.344;14.518;2022-07-29T09:47:57;26.60;82.10
13694;DHT22;6919;52.344;14.518;2022-07-29T09:50:36;26.70;83.40
13694;DHT22;6919;52.344;14.518;2022-07-29T09:53:06;26.90;81.40
13694;DHT22;6919;52.344;14.518;2022-07-29T09:55:47;26.90;81.60
13694;DHT22;6919;52.344;14.518;2022-07-29T09:58:20;27.10;82.00
13694;DHT22;6919;52.344;14.518;2022-07-29T10:00:50;27.20;83.60
13694;DHT22;6919;52.344;14.518;2022-07-29T10:03:21;27.30;81.20
13694;DHT22;6919;52.344;14.518;2022-07-29T10:06:04;27.20;78.80
13694;DHT22;6919;52.344;14.518;2022-07-29T10:08:34;26.90;80.60
13694;DHT22;6919;52.344;14.518;2022-07-29T10:11:12;26.80;80.80
13694;DHT22;6919;52.344;14.518;2022-07-29T10:13:44;26.60;80.40
13694;DHT22;6919;52.344;14.518;2022-07-29T10:16:14;26.40;81.30
13694;DHT22;6919;52.344;14.518;2022-07-29T10:18:44;26.50;83.00
13694;DHT22;6919;52.344;14.518;2022-07-29T10:21:14;26.40;83.30
13694;DHT22;6919;52.344;14.518;2022-07-29T10:24:02;26.60;81.50
13694;DHT22;6919;52.344;14.518;2022-07-29T10:26:40;26.50;81.40
13694;DHT22;6919;52.344;14.518;2022-07-29T10:29:10;26.40;80.90
13694;DHT22;6919;52.344;14.518;2022-07-29T10:31:47;26.60;85.20
13694;DHT22;6919;52.344;14.518;2022-07-29T10:34:23;26.90;83.60
13694;DHT22;6919;52.344;14.518;2022-07-29T10:37:08;27.10;83.00
13694;DHT22;6919;52.344;14.518;2022-07-29T10:39:55;27.20;78.90
13694;DHT22;6919;52.344;14.518;2022-07-29T10:42:54;27.30;79.00
13694;DHT22;6919;52.344;14.518;2022-07-29T10:45:29;27.20;76.60
13694;DHT22;6919;52.344;14.518;2022-07-29T10:48:06;27.10;77.90
13694;DHT22;6919;52.344;14.518;2022-07-29T10:50:55;27.20;78.40
13694;DHT22;6919;52.344;14.518;2022-07-29T10:53:47;27.30;77.10
13694;DHT22;6919;52.344;14.518;2022-07-29T10:56:26;27.40;78.50
13694;DHT22;6919;52.344;14.518;2022-07-29T10:59:24;27.60;74.80
13694;DHT22;6919;52.344;14.518;2022-07-29T11:02:43;27.80;75.30
13694;DHT22;6919;52.344;14.518;2022-07-29T11:05:16;27.90;73.70
13694;DHT22;6919;52.344;14.518;2022-07-29T11:08:19;28.10;76.30
13694;DHT22;6919;52.344;14.518;2022-07-29T11:14:09;28.40;72.10
13694;DHT22;6919;52.344;14.518;2022-07-29T11:17:03;28.60;68.50
13694;DHT22;6919;52.344;14.518;2022-07-29T11:19:36;28.90;69.20
13694;DHT22;6919;52.344;14.518;2022-07-29T11:22:32;28.90;70.70
13694;DHT22;6919;52.344;14.518;2022-07-29T11:25:13;28.50;66.90
13694;DHT22;6919;52.344;14.518;2022-07-29T11:27:44;28.20;65.40
13694;DHT22;6919;52.344;14.518;2022-07-29T11:30:13;28.20;67.20
13694;DHT22;6919;52.344;14.518;2022-07-29T11:32:44;28.40;65.30
13694;DHT22;6919;52.344;14.518;2022-07-29T11:35:17;28.40;67.00
13694;DHT22;6919;52.344;14.518;2022-07-29T11:38:23;28.30;63.30
13694;DHT22;6919;52.344;14.518;2022-07-29T11:41:19;28.20;64.10
13694;DHT22;6919;52.344;14.518;2022-07-29T11:43:52;28.20;64.70
13694;DHT22;6919;52.344;14.518;2022-07-29T11:46:55;28.10;60.20
13694;DHT22;6919;52.344;14.518;2022-07-29T11:49:24;28.20;60.90
13694;DHT22;6919;52.344;14.518;2022-07-29T11:52:00;28.60;61.40
13694;DHT22;6919;52.344;14.518;2022-07-29T11:54:31;28.90;60.80
13694;DHT22;6919;52.344;14.518;2022-07-29T11:57:21;28.90;59.70
13694;DHT22;6919;52.344;14.518;2022-07-29T12:00:05;29.30;60.70
13694;DHT22;6919;52.344;14.518;2022-07-29T12:02:39;29.70;59.10
13694;DHT22;6919;52.344;14.518;2022-07-29T12:05:14;29.90;57.50
13694;DHT22;6919;52.344;14.518;2022-07-29T12:08:08;29.40;56.70
13694;DHT22;6919;52.344;14.518;2022-07-29T12:10:42;28.60;58.20
13694;DHT22;6919;52.344;14.518;2022-07-29T12:13:11;28.70;59.30
13694;DHT22;6919;52.344;14.518;2022-07-29T12:15:40;28.50;57.40
13694;DHT22;6919;52.344;14.518;2022-07-29T12:18:17;28.50;58.90
13694;DHT22;6919;52.344;14.518;2022-07-29T12:20:57;28.80;57.90
13694;DHT22;6919;52.344;14.518;2022-07-29T12:23:31;29.00;55.90
13694;DHT22;6919;52.344;14.518;2022-07-29T12:26:04;29.40;55.20
13694;DHT22;6919;52.344;14.518;2022-07-29T12:28:47;29.70;54.00
13694;DHT22;6919;52.344;14.518;2022-07-29T12:31:16;29.80;53.90
13694;DHT22;6919;52.344;14.518;2022-07-29T12:34:04;30.30;55.10
13694;DHT22;6919;52.344;14.518;2022-07-29T12:36:33;30.00;52.40
13694;DHT22;6919;52.344;14.518;2022-07-29T12:39:03;29.30;52.30
13694;DHT22;6919;52.344;14.518;2022-07-29T12:41:32;29.20;55.30
13694;DHT22;6919;52.344;14.518;2022-07-29T12:44:00;29.60;56.70
13694;DHT22;6919;52.344;14.518;2022-07-29T12:46:28;30.10;55.60
13694;DHT22;6919;52.344;14.518;2022-07-29T12:48:57;30.30;53.20
13694;DHT22;6919;52.344;14.518;2022-07-29T12:51:28;30.00;52.00
13694;DHT22;6919;52.344;14.518;2022-07-29T12:54:04;30.40;54.40
13694;DHT22;6919;52.344;14.518;2022-07-29T12:56:34;30.90;51.40
13694;DHT22;6919;52.344;14.518;2022-07-29T12:59:13;31.70;51.00
13694;DHT22;6919;52.344;14.518;2022-07-29T13:01:42;32.70;49.00
13694;DHT22;6919;52.344;14.518;2022-07-29T13:04:11;33.40;46.40
13694;DHT22;6919;52.344;14.518;2022-07-29T13:06:59;33.00;44.40
13694;DHT22;6919;52.344;14.518;2022-07-29T13:09:38;31.80;44.30
13694;DHT22;6919;52.344;14.518;2022-07-29T13:12:09;31.00;46.40
13694;DHT22;6919;52.344;14.518;2022-07-29T13:14:40;31.10;47.30
13694;DHT22;6919;52.344;14.518;2022-07-29T13:17:11;31.30;45.90
13694;DHT22;6919;52.344;14.518;2022-07-29T13:19:41;30.30;46.30
13694;DHT22;6919;52.344;14.518;2022-07-29T13:22:12;29.70;47.10
13694;DHT22;6919;52.344;14.518;2022-07-29T13:24:50;29.30;48.40
13694;DHT22;6919;52.344;14.518;2022-07-29T13:27:21;30.10;49.50
13694;DHT22;6919;52.344;14.518;2022-07-29T13:29:50;31.20;47.60
13694;DHT22;6919;52.344;14.518;2022-07-29T13:32:20;32.20;47.10
13694;DHT22;6919;52.344;14.518;2022-07-29T13:34:54;33.00;44.40
13694;DHT22;6919;52.344;14.518;2022-07-29T13:37:24;33.40;44.30
13694;DHT22;6919;52.344;14.518;2022-07-29T13:39:57;32.70;42.30
13694;DHT22;6919;52.344;14.518;2022-07-29T13:42:27;31.90;43.30
13694;DHT22;6919;52.344;14.518;2022-07-29T13:44:55;30.80;45.50
13694;DHT22;6919;52.344;14.518;2022-07-29T13:47:24;31.30;45.00
13694;DHT22;6919;52.344;14.518;2022-07-29T13:49:58;31.60;45.80
13694;DHT22;6919;52.344;14.518;2022-07-29T13:52:27;32.20;43.80
13694;DHT22;6919;52.344;14.518;2022-07-29T13:54:57;33.00;42.10
13694;DHT22;6919;52.344;14.518;2022-07-29T13:57:25;33.50;40.80
13694;DHT22;6919;52.344;14.518;2022-07-29T13:59:55;33.40;40.30
13694;DHT22;6919;52.344;14.518;2022-07-29T14:02:23;33.20;39.70
13694;DHT22;6919;52.344;14.518;2022-07-29T14:04:52;31.70;40.40
13694;DHT22;6919;52.344;14.518;2022-07-29T14:07:23;30.60;41.40
13694;DHT22;6919;52.344;14.518;2022-07-29T14:09:51;30.40;42.60
13694;DHT22;6919;52.344;14.518;2022-07-29T14:12:20;31.70;43.60
13694;DHT22;6919;52.344;14.518;2022-07-29T14:14:49;32.70;41.10
13694;DHT22;6919;52.344;14.518;2022-07-29T14:17:17;33.70;39.40
13694;DHT22;6919;52.344;14.518;2022-07-29T14:19:45;34.40;38.50
13694;DHT22;6919;52.344;14.518;2022-07-29T14:22:14;34.50;36.90
13694;DHT22;6919;52.344;14.518;2022-07-29T14:24:42;34.50;37.80
13694;DHT22;6919;52.344;14.518;2022-07-29T14:27:11;33.50;37.50
13694;DHT22;6919;52.344;14.518;2022-07-29T14:29:41;33.00;38.90
13694;DHT22;6919;52.344;14.518;2022-07-29T14:32:10;32.70;39.10
13694;DHT22;6919;52.344;14.518;2022-07-29T14:34:38;32.80;39.00
13694;DHT22;6919;52.344;14.518;2022-07-29T14:37:06;33.00;38.90
13694;DHT22;6919;52.344;14.518;2022-07-29T14:39:42;32.80;38.90
13694;DHT22;6919;52.344;14.518;2022-07-29T14:42:10;32.50;39.40
13694;DHT22;6919;52.344;14.518;2022-07-29T14:44:41;31.70;39.80
13694;DHT22;6919;52.344;14.518;2022-07-29T14:47:10;31.10;40.60
13694;DHT22;6919;52.344;14.518;2022-07-29T14:49:38;30.60;41.20
13694;DHT22;6919;52.344;14.518;2022-07-29T14:52:07;29.80;41.80
13694;DHT22;6919;52.344;14.518;2022-07-29T14:54:35;30.00;42.30
13694;DHT22;6919;52.344;14.518;2022-07-29T14:57:03;31.20;41.50
13694;DHT22;6919;52.344;14.518;2022-07-29T14:59:31;32.10;40.80
13694;DHT22;6919;52.344;14.518;2022-07-29T15:02:01;33.00;40.00
13694;DHT22;6919;52.344;14.518;2022-07-29T15:04:30;33.20;39.70
13694;DHT22;6919;52.344;14.518;2022-07-29T15:06:58;33.60;38.00
13694;DHT22;6919;52.344;14.518;2022-07-29T15:09:26;33.90;37.20
13694;DHT22;6919;52.344;14.518;2022-07-29T15:11:55;33.70;36.40
13694;DHT22;6919;52.344;14.518;2022-07-29T15:14:24;32.90;37.30
13694;DHT22;6919;52.344;14.518;2022-07-29T15:16:52;32.70;38.70
13694;DHT22;6919;52.344;14.518;2022-07-29T15:19:22;32.10;38.80
13694;DHT22;6919;52.344;14.518;2022-07-29T15:21:50;32.10;37.80
13694;DHT22;6919;52.344;14.518;2022-07-29T15:24:20;31.70;38.70
13694;DHT22;6919;52.344;14.518;2022-07-29T15:26:48;31.30;39.10
13694;DHT22;6919;52.344;14.518;2022-07-29T15:29:17;30.40;39.80
13694;DHT22;6919;52.344;14.518;2022-07-29T15:31:45;29.80;40.90
13694;DHT22;6919;52.344;14.518;2022-07-29T15:34:13;29.30;42.10
13694;DHT22;6919;52.344;14.518;2022-07-29T15:36:43;29.00;42.40
13694;DHT22;6919;52.344;14.518;2022-07-29T15:39:20;28.70;44.10
13694;DHT22;6919;52.344;14.518;2022-07-29T15:41:50;28.40;44.60
13694;DHT22;6919;52.344;14.518;2022-07-29T15:44:18;28.00;43.70
13694;DHT22;6919;52.344;14.518;2022-07-29T15:46:47;27.90;44.10
13694;DHT22;6919;52.344;14.518;2022-07-29T15:49:33;28.00;44.10
13694;DHT22;6919;52.344;14.518;2022-07-29T15:52:17;28.30;44.20
13694;DHT22;6919;52.344;14.518;2022-07-29T15:54:53;28.40;44.70
13694;DHT22;6919;52.344;14.518;2022-07-29T15:57:23;28.70;44.10
13694;DHT22;6919;52.344;14.518;2022-07-29T15:59:51;28.70;43.00
13694;DHT22;6919;52.344;14.518;2022-07-29T16:02:20;28.80;43.80
13694;DHT22;6919;52.344;14.518;2022-07-29T16:04:48;29.00;44.10
13694;DHT22;6919;52.344;14.518;2022-07-29T16:07:18;28.80;43.00
13694;DHT22;6919;52.344;14.518;2022-07-29T16:09:48;28.70;44.00